Arlee, MT

3:42 PM MDT on October 20, 2014 (GMT -0600)
Jocko Valley River Bottom | Change Station
CLOSE
Current Station
Personal Weather Station
Location: Arlee, MT
Elevation: 2930 ft
Nearby Weather Stations

Elev 2930 ft 47.19 °N, 114.11 °W | Updated 13 minutes ago

Clear
Clear
75.7 °F
Feels Like 77 °F
N
3.7
Wind Variable Wind from NNE

Today
High -- | Low -- °F
--% Chance of Precip.
Yesterday
High -- | Low -- °F
Precip. -- in
8:01 AM 6:39 PM
Waning Crescent, 9% visible
Pressure 29.78 in
Visibility 10.0 miles
Clouds Clear
Heat Index 77 °F
Dew Point 39 °F
Humidity 27%
Rainfall 0.00 in
Snow Depth 0 in
UV 3 out of 12
Pollen 1.90 out of 12
Air Quality Not available.
Flu Activity No Activity
METAR KMSO 202053Z 00000KT 10SM CLR 19/03 A2978 RMK AO2 SLP082 T01940033 56034

More Conditions Fewer Conditions

Pressure 29.78 in
Visibility 10.0 miles
Clouds Clear
Heat Index 77 °F
Dew Point 39 °F
Humidity 27%
Rainfall 0.00 in
Snow Depth 0 in
UV 3 out of 12
Pollen 1.90 out of 12
Air Quality Not available.
Flu Activity No Activity
METAR KMSO 202053Z 00000KT 10SM CLR 19/03 A2978 RMK AO2 SLP082 T01940033 56034

More Conditions Fewer Conditions

10-Day Weather Forecast

Almanac

Astronomy

Oct. 20, 2014 Rise Set
Actual Time 8:01 AM MDT 6:39 PM MDT
Civil Twilight 7:30 AM MDT 7:10 PM MDT
Nautical Twilight 6:55 AM MDT 7:45 PM MDT
Astronomical Twilight 6:19 AM MDT 8:21 PM MDT
Moon 4:41 AM MDT 5:14 PM MDT
Length of Visible Light 11h 39m
Length of Day
10h 37m
Waning Crescent, 9% of the Moon is Illuminated
Today
Waning Crescent
Oct 23
New
Oct 30
First Quarter
Nov 6
Full
Nov 14
Last Quarter

Today's Extremes

State Highs State Lows

Community

WunderPhotos

Upload Photos

1,763,527 photos uploaded!

WunderBlogs® & News

Nearby

Snow Depth

Station Depth Elevation
Stuart Mountain 0 in 7400 ft
Kraft Creek 0 in 4750 ft
Black Pine 0 in 7210 ft
Wood Creek 0 in 5960 ft
Nez Perce Camp 0 in 5650 ft

Earthquake Activity

City Distance Mag. Time & Date
No recent earthquake activity has been reported nearby.
Minimum magnitude displayed is 2.5.

Coastal Water Temperatures

Place Temperature
No Stations Reporting

Nearby Weather Stations